createdAt,value
2023-04-19T00:01:07.576Z,7.50
2023-04-19T00:03:35.719Z,7.50
2023-04-19T00:06:08.486Z,7.50
2023-04-19T00:08:36.537Z,7.40
2023-04-19T00:11:04.732Z,7.40
2023-04-19T00:13:34.243Z,7.30
2023-04-19T00:16:02.336Z,7.20
2023-04-19T00:18:30.637Z,7.20
2023-04-19T00:20:58.647Z,7.10
2023-04-19T00:23:26.711Z,7.00
2023-04-19T00:25:55.097Z,7.00
2023-04-19T00:28:23.186Z,6.90
2023-04-19T00:30:52.666Z,6.90
2023-04-19T00:33:21.008Z,6.80
2023-04-19T00:35:50.143Z,6.80
2023-04-19T00:38:18.204Z,6.70
2023-04-19T00:40:46.822Z,6.70
2023-04-19T00:43:19.595Z,6.70
2023-04-19T00:45:50.103Z,6.60
2023-04-19T00:48:21.426Z,6.60
2023-04-19T00:50:49.895Z,6.60
2023-04-19T00:53:19.686Z,6.60
2023-04-19T00:55:48.528Z,6.60
2023-04-19T00:58:17.244Z,6.50
2023-04-19T01:00:45.493Z,6.40
2023-04-19T01:03:14.693Z,6.50
2023-04-19T01:05:45.638Z,6.40
2023-04-19T01:08:14.402Z,6.30
2023-04-19T01:10:42.519Z,6.20
2023-04-19T01:13:10.699Z,6.20
2023-04-19T01:15:39.376Z,6.20
2023-04-19T01:18:07.592Z,6.10
2023-04-19T01:20:36.130Z,6.10
2023-04-19T01:23:05.604Z,6.00
2023-04-19T01:25:33.793Z,5.90
2023-04-19T01:28:01.961Z,5.90
2023-04-19T01:30:29.960Z,5.80
2023-04-19T01:32:58.264Z,5.80
2023-04-19T01:35:26.606Z,5.80
2023-04-19T01:37:56.287Z,5.70
2023-04-19T01:40:27.105Z,5.70
2023-04-19T01:42:55.222Z,5.60
2023-04-19T01:45:23.275Z,5.60
2023-04-19T01:47:52.900Z,5.50
2023-04-19T01:50:20.956Z,5.50
2023-04-19T01:52:49.011Z,5.40
2023-04-19T01:55:17.526Z,5.30
2023-04-19T01:57:49.170Z,5.30
2023-04-19T02:00:18.384Z,5.30
2023-04-19T02:02:48.501Z,5.20
2023-04-19T02:05:16.986Z,5.20
2023-04-19T02:07:45.457Z,5.10
2023-04-19T02:10:13.547Z,5.10
2023-04-19T02:12:42.781Z,5.00
2023-04-19T02:15:12.893Z,5.00
2023-04-19T02:17:41.471Z,5.00
2023-04-19T02:20:10.845Z,4.90
2023-04-19T02:22:39.186Z,4.90
2023-04-19T02:25:08.931Z,4.90
2023-04-19T02:27:37.239Z,4.80
2023-04-19T02:30:06.014Z,4.80
2023-04-19T02:32:36.529Z,4.80
2023-04-19T02:35:08.391Z,4.70
2023-04-19T02:37:36.414Z,4.70
2023-04-19T02:40:05.530Z,4.70
2023-04-19T02:42:33.654Z,4.70
2023-04-19T02:45:01.735Z,4.60
2023-04-19T02:47:29.982Z,4.60
2023-04-19T02:50:00.669Z,4.60
2023-04-19T02:52:29.146Z,4.60
2023-04-19T02:54:57.474Z,4.50
2023-04-19T02:57:25.756Z,4.50
2023-04-19T02:59:53.829Z,4.50
2023-04-19T03:02:22.131Z,4.50
2023-04-19T03:04:50.253Z,4.40
2023-04-19T03:07:20.475Z,4.40
2023-04-19T03:09:48.726Z,4.40
2023-04-19T03:12:16.966Z,4.40
2023-04-19T03:14:44.970Z,4.30
2023-04-19T03:17:13.324Z,4.30
2023-04-19T03:19:45.281Z,4.30
2023-04-19T03:22:13.553Z,4.20
2023-04-19T03:24:43.062Z,4.20
2023-04-19T03:30:11.304Z,4.10
2023-04-19T03:32:39.472Z,4.10
2023-04-19T03:35:09.912Z,4.00
2023-04-19T03:37:37.939Z,4.00
2023-04-19T03:40:08.742Z,4.00
2023-04-19T03:42:38.178Z,4.00
2023-04-19T03:45:19.814Z,3.90
2023-04-19T03:47:49.453Z,3.90
2023-04-19T03:50:17.724Z,3.80
2023-04-19T03:52:49.679Z,3.80
2023-04-19T03:55:20.085Z,3.80
2023-04-19T03:57:48.417Z,3.80
2023-04-19T04:00:31.997Z,3.70
2023-04-19T04:03:01.974Z,3.70
2023-04-19T04:05:30.806Z,3.70
2023-04-19T04:07:59.079Z,3.70
2023-04-19T04:10:29.877Z,3.70
2023-04-19T04:12:59.035Z,3.70
2023-04-19T04:15:36.761Z,3.70
2023-04-19T04:18:09.013Z,3.70
2023-04-19T04:20:38.581Z,3.60
2023-04-19T04:23:10.847Z,3.60
2023-04-19T04:25:44.114Z,3.60
2023-04-19T04:28:14.728Z,3.60
2023-04-19T04:30:43.085Z,3.60
2023-04-19T04:33:13.985Z,3.60
2023-04-19T04:35:44.030Z,3.60
2023-04-19T04:38:24.516Z,3.60
2023-04-19T04:40:57.102Z,3.60
2023-04-19T04:43:28.942Z,3.60
2023-04-19T04:45:58.162Z,3.60
2023-04-19T04:48:28.624Z,3.60
2023-04-19T04:51:00.837Z,3.50
2023-04-19T04:53:30.692Z,3.50
2023-04-19T04:56:01.472Z,3.50
2023-04-19T04:58:30.429Z,3.50
2023-04-19T05:01:05.202Z,3.50
2023-04-19T05:03:38.363Z,3.50
2023-04-19T05:06:10.411Z,3.50
2023-04-19T05:08:38.708Z,3.50
2023-04-19T05:11:34.321Z,3.50
2023-04-19T05:14:04.926Z,3.50
2023-04-19T05:16:34.796Z,3.50
2023-04-19T05:19:04.194Z,3.50
2023-04-19T05:21:36.719Z,3.50
2023-04-19T05:24:07.061Z,3.60
2023-04-19T05:26:37.792Z,3.60
2023-04-19T05:29:07.531Z,3.60
2023-04-19T05:31:43.059Z,3.70
2023-04-19T05:34:22.038Z,3.70
2023-04-19T05:36:50.677Z,3.80
2023-04-19T05:39:18.769Z,3.90
2023-04-19T05:41:48.163Z,3.90
2023-04-19T05:44:16.521Z,4.00
2023-04-19T05:46:45.089Z,4.10
2023-04-19T05:49:15.890Z,4.20
2023-04-19T05:52:03.994Z,4.30
2023-04-19T05:54:46.318Z,4.40
2023-04-19T05:57:15.932Z,4.50
2023-04-19T05:59:44.010Z,4.60
2023-04-19T06:02:14.254Z,4.70
2023-04-19T06:04:42.788Z,4.80
2023-04-19T06:07:22.200Z,5.00
2023-04-19T06:09:55.353Z,5.20
2023-04-19T06:12:24.794Z,5.40
2023-04-19T06:14:53.605Z,5.50
2023-04-19T06:17:24.633Z,5.70
2023-04-19T06:19:52.930Z,5.90
2023-04-19T06:22:21.274Z,6.10
2023-04-19T06:24:49.956Z,6.20
2023-04-19T06:27:18.122Z,6.40
2023-04-19T06:29:51.349Z,6.70
2023-04-19T06:32:19.520Z,7.00
2023-04-19T06:34:47.617Z,7.30
2023-04-19T06:37:15.790Z,7.60
2023-04-19T06:39:46.829Z,7.90
2023-04-19T06:42:14.824Z,8.20
2023-04-19T06:44:42.987Z,8.40
2023-04-19T06:47:12.402Z,8.50
2023-04-19T06:49:40.593Z,8.80
2023-04-19T06:52:08.611Z,8.90
2023-04-19T06:54:36.770Z,9.20
2023-04-19T06:57:04.976Z,9.40
2023-04-19T06:59:33.519Z,9.70
2023-04-19T07:02:01.849Z,10.10
2023-04-19T07:04:31.636Z,10.30
2023-04-19T07:07:00.290Z,10.60
2023-04-19T07:09:28.756Z,10.80
2023-04-19T07:11:57.384Z,10.90
2023-04-19T07:14:25.763Z,11.00
2023-04-19T07:16:54.645Z,11.20
2023-04-19T07:19:22.962Z,11.60
2023-04-19T07:21:52.814Z,12.00
2023-04-19T07:24:20.966Z,12.40
2023-04-19T07:26:49.154Z,12.70
2023-04-19T07:29:17.196Z,13.20
2023-04-19T07:31:45.485Z,13.60
2023-04-19T07:34:13.615Z,14.00
2023-04-19T07:36:41.814Z,14.40
2023-04-19T07:39:11.546Z,14.80
2023-04-19T07:41:39.549Z,15.10
2023-04-19T07:44:07.614Z,15.50
2023-04-19T07:46:36.100Z,15.80
2023-04-19T07:49:04.191Z,16.10
2023-04-19T07:51:32.293Z,16.40
2023-04-19T07:54:01.018Z,16.70
2023-04-19T07:56:30.456Z,17.00
2023-04-19T07:59:07.411Z,17.30
2023-04-19T08:01:38.935Z,17.50
2023-04-19T08:04:08.064Z,17.70
2023-04-19T08:06:37.914Z,17.90
2023-04-19T08:09:06.746Z,18.10
2023-04-19T08:11:36.285Z,18.40
2023-04-19T08:14:12.027Z,18.60
2023-04-19T08:19:17.743Z,18.90
2023-04-19T08:21:45.763Z,19.20
2023-04-19T08:24:13.957Z,19.40
2023-04-19T08:26:43.800Z,19.60
2023-04-19T08:29:11.997Z,19.90
2023-04-19T08:31:40.118Z,20.10
2023-04-19T08:34:08.444Z,20.40
2023-04-19T08:36:43.394Z,20.60
2023-04-19T08:39:29.255Z,20.60
2023-04-19T08:42:10.519Z,20.60
2023-04-19T08:47:30.296Z,20.80
2023-04-19T08:50:14.085Z,20.90
2023-04-19T08:52:55.889Z,21.00
2023-04-19T08:55:27.713Z,21.20
2023-04-19T08:57:58.119Z,21.30
2023-04-19T09:00:26.398Z,21.60
2023-04-19T09:02:56.127Z,21.80
2023-04-19T09:05:24.508Z,22.00
2023-04-19T09:07:52.708Z,22.20
2023-04-19T09:10:22.570Z,22.30
2023-04-19T09:13:07.156Z,22.50
2023-04-19T09:15:40.185Z,23.00
2023-04-19T09:18:09.737Z,23.40
2023-04-19T09:20:38.686Z,23.70
2023-04-19T09:23:07.721Z,23.80
2023-04-19T09:25:58.826Z,24.00
2023-04-19T09:28:26.392Z,24.10
2023-04-19T09:31:03.524Z,24.30
2023-04-19T09:33:36.878Z,24.70
2023-04-19T09:36:05.509Z,24.80
2023-04-19T09:38:48.218Z,25.40
2023-04-19T09:41:17.264Z,25.90
2023-04-19T09:44:02.282Z,26.40
2023-04-19T09:46:36.604Z,27.00
2023-04-19T09:49:45.615Z,27.30
2023-04-19T09:52:15.841Z,27.40
2023-04-19T09:54:45.240Z,27.40
2023-04-19T09:57:13.796Z,27.50
2023-04-19T09:59:43.529Z,27.20
2023-04-19T10:02:13.486Z,27.30
2023-04-19T10:04:59.578Z,27.20
2023-04-19T10:07:33.734Z,27.40
2023-04-19T10:10:15.845Z,27.30
2023-04-19T10:15:24.533Z,26.30
2023-04-19T10:17:52.802Z,26.30
2023-04-19T10:20:24.902Z,26.40
2023-04-19T10:22:53.846Z,26.70
2023-04-19T10:25:30.810Z,27.70
2023-04-19T10:27:59.310Z,29.10
2023-04-19T10:30:28.997Z,30.40
2023-04-19T10:32:59.030Z,31.90
2023-04-19T10:35:29.624Z,33.00
2023-04-19T10:38:12.171Z,33.80
2023-04-19T10:40:59.795Z,34.90
2023-04-19T10:43:29.416Z,36.10
2023-04-19T10:46:01.878Z,36.60
2023-04-19T10:48:35.224Z,37.60
2023-04-19T10:51:04.589Z,38.50
2023-04-19T10:53:49.826Z,39.20
2023-04-19T10:56:19.124Z,39.70
2023-04-19T10:59:24.286Z,40.00
2023-04-19T11:01:56.275Z,39.90
2023-04-19T11:05:09.996Z,40.40
2023-04-19T11:07:42.705Z,41.50
2023-04-19T11:10:11.829Z,41.70
2023-04-19T11:12:44.250Z,41.50
2023-04-19T11:15:12.545Z,41.50
2023-04-19T11:17:42.659Z,41.20
2023-04-19T11:20:12.092Z,41.60
2023-04-19T11:22:41.972Z,41.90
2023-04-19T11:25:12.037Z,42.20
2023-04-19T11:27:41.180Z,42.70
2023-04-19T11:30:11.460Z,43.20
2023-04-19T11:32:45.919Z,43.80
2023-04-19T11:35:14.219Z,44.20
2023-04-19T11:37:42.235Z,44.30
2023-04-19T11:40:15.344Z,44.70
2023-04-19T11:43:00.097Z,45.80
2023-04-19T11:45:32.527Z,46.40
2023-04-19T11:48:07.236Z,46.70
2023-04-19T11:50:37.934Z,46.10
2023-04-19T11:53:13.217Z,45.90
2023-04-19T11:55:44.423Z,45.80
2023-04-19T11:58:25.202Z,46.00
2023-04-19T12:00:55.840Z,45.80
2023-04-19T12:03:26.804Z,45.90
2023-04-19T12:05:56.909Z,45.80
2023-04-19T12:08:36.247Z,45.20
2023-04-19T12:11:05.706Z,45.40
2023-04-19T12:13:34.422Z,45.40
2023-04-19T12:16:02.647Z,45.40
2023-04-19T12:18:45.721Z,45.30
2023-04-19T12:21:27.183Z,45.50
2023-04-19T12:23:56.985Z,45.30
2023-04-19T12:26:25.654Z,45.60
2023-04-19T12:28:56.021Z,45.40
2023-04-19T12:31:24.681Z,45.40
2023-04-19T12:33:54.578Z,45.80
2023-04-19T12:36:22.718Z,46.20
2023-04-19T12:38:50.892Z,45.70
2023-04-19T12:41:19.254Z,45.90
2023-04-19T12:43:48.489Z,46.20
2023-04-19T12:46:16.696Z,46.20
2023-04-19T12:48:44.814Z,46.50
2023-04-19T12:51:14.321Z,46.30
2023-04-19T12:53:43.023Z,46.40
2023-04-19T12:56:12.319Z,46.60
2023-04-19T12:58:40.397Z,46.80
2023-04-19T13:01:08.696Z,47.00
2023-04-19T13:03:37.774Z,47.40
2023-04-19T13:06:07.369Z,47.60
2023-04-19T13:08:44.578Z,47.60
2023-04-19T13:11:14.930Z,47.10
2023-04-19T13:13:42.960Z,46.50
2023-04-19T13:16:11.473Z,46.40
2023-04-19T13:18:39.906Z,46.30
2023-04-19T13:21:08.634Z,46.60
2023-04-19T13:23:38.320Z,46.70
2023-04-19T13:26:07.408Z,46.20
2023-04-19T13:28:36.673Z,45.70
2023-04-19T13:31:05.676Z,45.90
2023-04-19T13:33:34.178Z,45.70
2023-04-19T13:36:02.300Z,45.10
2023-04-19T13:38:30.460Z,45.20
2023-04-19T13:41:00.458Z,45.00
2023-04-19T13:43:28.578Z,44.90
2023-04-19T13:45:56.816Z,45.10
2023-04-19T13:48:27.420Z,44.50
2023-04-19T13:50:55.933Z,43.30
2023-04-19T13:53:24.794Z,42.40
2023-04-19T13:55:53.329Z,41.60
2023-04-19T13:58:24.856Z,40.10
2023-04-19T14:00:53.633Z,38.00
2023-04-19T14:03:23.375Z,36.20
2023-04-19T14:05:51.816Z,34.00
2023-04-19T14:08:19.999Z,32.10
2023-04-19T14:10:48.084Z,30.20
2023-04-19T14:13:16.410Z,28.30
2023-04-19T14:15:46.461Z,26.50
2023-04-19T14:18:14.531Z,25.20
2023-04-19T14:20:42.810Z,24.20
2023-04-19T14:23:11.329Z,23.20
2023-04-19T14:25:39.360Z,22.30
2023-04-19T14:28:07.746Z,21.50
2023-04-19T14:30:36.008Z,20.80
2023-04-19T14:33:05.480Z,20.30
2023-04-19T14:35:33.874Z,19.80
2023-04-19T14:38:02.020Z,19.30
2023-04-19T14:40:30.171Z,18.90
2023-04-19T14:42:58.253Z,18.50
2023-04-19T14:45:27.378Z,18.20
2023-04-19T14:47:55.409Z,18.00
2023-04-19T14:50:24.913Z,17.70
2023-04-19T14:52:54.724Z,17.50
2023-04-19T14:55:24.988Z,17.30
2023-04-19T14:57:53.135Z,17.10
2023-04-19T15:00:21.650Z,16.80
2023-04-19T15:02:49.986Z,16.60
2023-04-19T15:05:18.563Z,16.50
2023-04-19T15:07:48.204Z,16.40
2023-04-19T15:10:18.717Z,16.30
2023-04-19T15:12:46.911Z,16.20
2023-04-19T15:15:14.913Z,16.10
2023-04-19T15:17:43.970Z,16.00
2023-04-19T15:20:12.726Z,15.90
2023-04-19T15:22:40.948Z,15.80
2023-04-19T15:25:11.120Z,15.70
2023-04-19T15:27:39.244Z,15.60
2023-04-19T15:30:08.598Z,15.50
2023-04-19T15:32:38.767Z,15.40
2023-04-19T15:35:07.657Z,15.30
2023-04-19T15:37:35.859Z,15.20
2023-04-19T15:40:04.059Z,15.10
2023-04-19T15:42:33.612Z,15.10
2023-04-19T15:45:01.795Z,15.00
2023-04-19T15:47:29.939Z,14.90
2023-04-19T15:49:58.933Z,14.90
2023-04-19T15:52:27.274Z,14.80
2023-04-19T15:54:55.302Z,14.70
2023-04-19T15:57:23.469Z,14.50
2023-04-19T15:59:53.003Z,14.40
2023-04-19T16:02:21.343Z,14.30
2023-04-19T16:04:49.624Z,14.20
2023-04-19T16:07:17.886Z,14.10
2023-04-19T16:09:45.990Z,14.00
2023-04-19T16:12:14.210Z,13.90
2023-04-19T16:14:42.232Z,13.80
2023-04-19T16:17:11.706Z,13.70
2023-04-19T16:19:39.991Z,13.60
2023-04-19T16:22:08.086Z,13.50
2023-04-19T16:27:22.236Z,13.40
2023-04-19T16:29:50.261Z,13.30
2023-04-19T16:32:19.835Z,13.20
2023-04-19T16:34:47.959Z,13.20
2023-04-19T16:37:16.185Z,13.10
2023-04-19T16:39:44.316Z,13.00
2023-04-19T16:42:12.476Z,13.00
2023-04-19T16:44:40.626Z,12.90
2023-04-19T16:47:08.773Z,12.90
2023-04-19T16:49:38.186Z,12.80
2023-04-19T16:52:06.441Z,12.80
2023-04-19T16:54:34.778Z,12.70
2023-04-19T16:57:03.035Z,12.60
2023-04-19T16:59:31.211Z,12.60
2023-04-19T17:02:02.301Z,12.50
2023-04-19T17:04:32.503Z,12.50
2023-04-19T17:07:02.158Z,12.40
2023-04-19T17:09:30.644Z,12.30
2023-04-19T17:11:58.743Z,12.30
2023-04-19T17:14:26.989Z,12.20
2023-04-19T17:16:55.386Z,12.10
2023-04-19T17:19:23.674Z,12.10
2023-04-19T17:21:51.945Z,12.00
2023-04-19T17:24:21.496Z,11.90
2023-04-19T17:26:49.918Z,11.90
2023-04-19T17:29:18.278Z,11.80
2023-04-19T17:31:46.835Z,11.70
2023-04-19T17:34:14.962Z,11.60
2023-04-19T17:36:43.218Z,11.60
2023-04-19T17:39:11.413Z,11.50
2023-04-19T17:41:43.995Z,11.50
2023-04-19T17:44:12.457Z,11.40
2023-04-19T17:46:43.271Z,11.30
2023-04-19T17:49:12.732Z,11.20
2023-04-19T17:51:40.817Z,11.20
2023-04-19T17:54:08.985Z,11.20
2023-04-19T17:56:37.156Z,11.20
2023-04-19T17:59:06.684Z,11.10
2023-04-19T18:01:35.152Z,11.10
2023-04-19T18:04:03.903Z,11.10
2023-04-19T18:06:32.636Z,11.10
2023-04-19T18:09:00.815Z,11.10
2023-04-19T18:11:29.014Z,11.10
2023-04-19T18:13:57.035Z,11.10
2023-04-19T18:16:26.617Z,11.10
2023-04-19T18:18:54.938Z,11.00
2023-04-19T18:21:23.125Z,11.00
2023-04-19T18:23:51.998Z,11.00
2023-04-19T18:26:19.986Z,11.00
2023-04-19T18:28:50.228Z,10.90
2023-04-19T18:31:18.209Z,10.90
2023-04-19T18:33:47.704Z,10.90
2023-04-19T18:36:15.839Z,10.80
2023-04-19T18:38:43.899Z,10.80
2023-04-19T18:41:12.080Z,10.80
2023-04-19T18:43:40.447Z,10.70
2023-04-19T18:46:08.579Z,10.60
2023-04-19T18:48:36.777Z,10.60
2023-04-19T18:51:09.769Z,10.50
2023-04-19T18:53:37.995Z,10.40
2023-04-19T18:56:06.259Z,10.40
2023-04-19T18:58:34.261Z,10.30
2023-04-19T19:01:02.625Z,10.20
2023-04-19T19:03:53.909Z,10.10
2023-04-19T19:06:20.521Z,10.10
2023-04-19T19:08:50.115Z,10.00
2023-04-19T19:11:51.283Z,10.00
2023-04-19T19:14:06.364Z,10.00
2023-04-19T19:19:08.246Z,9.90
2023-04-19T19:21:37.675Z,9.90
2023-04-19T19:24:06.780Z,9.90
2023-04-19T19:26:34.836Z,10.00
2023-04-19T19:29:03.030Z,10.00
2023-04-19T19:31:31.079Z,10.00
2023-04-19T19:34:19.957Z,10.00
2023-04-19T19:36:48.951Z,10.10
2023-04-19T19:39:17.199Z,10.10
2023-04-19T19:42:03.639Z,10.10
2023-04-19T19:44:33.857Z,10.10
2023-04-19T19:47:01.948Z,10.20
2023-04-19T19:49:40.604Z,10.20
2023-04-19T19:52:15.208Z,10.20
2023-04-19T19:54:43.291Z,10.20
2023-04-19T19:58:07.183Z,10.10
2023-04-19T20:00:18.100Z,10.10
2023-04-19T20:05:19.884Z,9.90
2023-04-19T20:10:21.110Z,9.80
2023-04-19T20:12:49.260Z,9.80
2023-04-19T20:15:17.460Z,9.80
2023-04-19T20:17:45.990Z,9.80
2023-04-19T20:20:14.896Z,9.80
2023-04-19T20:22:43.253Z,9.70
2023-04-19T20:25:13.618Z,9.60
2023-04-19T20:27:41.887Z,9.50
2023-04-19T20:30:10.915Z,9.50
2023-04-19T20:32:42.713Z,9.40
2023-04-19T20:35:12.975Z,9.30
2023-04-19T20:37:41.444Z,9.30
2023-04-19T20:40:13.664Z,9.30
2023-04-19T20:42:42.513Z,9.30
2023-04-19T20:45:11.135Z,9.30
2023-04-19T20:47:39.943Z,9.30
2023-04-19T20:50:08.947Z,9.40
2023-04-19T20:52:37.053Z,9.40
2023-04-19T20:55:05.879Z,9.40
2023-04-19T20:57:35.535Z,9.40
2023-04-19T21:00:04.560Z,9.40
2023-04-19T21:02:32.908Z,9.40
2023-04-19T21:05:01.135Z,9.40
2023-04-19T21:07:29.512Z,9.50
2023-04-19T21:09:57.776Z,9.50
2023-04-19T21:12:27.983Z,9.50
2023-04-19T21:14:57.397Z,9.60
2023-04-19T21:17:26.032Z,9.60
2023-04-19T21:19:54.481Z,9.60
2023-04-19T21:22:22.693Z,9.70
2023-04-19T21:24:50.832Z,9.70
2023-04-19T21:27:19.185Z,9.70
2023-04-19T21:29:47.280Z,9.70
2023-04-19T21:32:16.895Z,9.70
2023-04-19T21:34:46.036Z,9.60
2023-04-19T21:37:15.388Z,9.60
2023-04-19T21:39:43.450Z,9.50
2023-04-19T21:42:11.961Z,9.40
2023-04-19T21:44:40.359Z,9.30
2023-04-19T21:47:08.472Z,9.30
2023-04-19T21:49:38.048Z,9.20
2023-04-19T21:52:07.626Z,9.20
2023-04-19T21:54:35.747Z,9.20
2023-04-19T21:57:03.981Z,9.20
2023-04-19T21:59:35.567Z,9.20
2023-04-19T22:02:04.300Z,9.20
2023-04-19T22:04:32.529Z,9.20
2023-04-19T22:07:02.931Z,9.30
2023-04-19T22:09:32.038Z,9.40
2023-04-19T22:12:01.639Z,9.50
2023-04-19T22:14:30.683Z,9.50
2023-04-19T22:17:02.652Z,9.60
2023-04-19T22:19:31.734Z,9.70
2023-04-19T22:22:01.255Z,9.70
2023-04-19T22:24:29.500Z,9.70
2023-04-19T22:26:57.525Z,9.80
2023-04-19T22:29:25.978Z,9.80
2023-04-19T22:31:54.201Z,9.80
2023-04-19T22:34:22.349Z,9.70
2023-04-19T22:36:50.541Z,9.60
2023-04-19T22:39:20.110Z,9.50
2023-04-19T22:41:48.228Z,9.50
2023-04-19T22:44:16.302Z,9.40
2023-04-19T22:46:45.005Z,9.40
2023-04-19T22:49:13.116Z,9.40
2023-04-19T22:51:42.426Z,9.30
2023-04-19T22:54:10.803Z,9.20
2023-04-19T22:56:40.332Z,9.10
2023-04-19T22:59:08.596Z,9.00
2023-04-19T23:01:36.987Z,8.90
2023-04-19T23:04:05.126Z,8.80
2023-04-19T23:06:33.783Z,8.70
2023-04-19T23:09:02.191Z,8.70
2023-04-19T23:11:30.238Z,8.60
2023-04-19T23:13:59.825Z,8.60
2023-04-19T23:16:29.133Z,8.60
2023-04-19T23:18:57.227Z,8.60
2023-04-19T23:21:25.451Z,8.70
2023-04-19T23:23:53.886Z,8.70
2023-04-19T23:26:21.986Z,8.80
2023-04-19T23:28:50.184Z,8.90
2023-04-19T23:31:19.761Z,9.00
2023-04-19T23:33:48.022Z,9.10
2023-04-19T23:36:16.291Z,9.30
2023-04-19T23:38:44.366Z,9.40
2023-04-19T23:41:12.669Z,9.50
2023-04-19T23:43:40.904Z,9.60
2023-04-19T23:46:09.060Z,9.70
2023-04-19T23:48:38.656Z,9.70
2023-04-19T23:51:07.123Z,9.80
2023-04-19T23:53:35.150Z,9.90
2023-04-19T23:56:03.441Z,9.90
2023-04-19T23:58:31.795Z,9.80
